Time;durP1;ratioP1;P1;durP2;ratioP2;P2;SDS_P1;SDS_P2;PMS_P1;PMS_P2;Temp;Humidity;BMP_temperature;BMP_pressure;BME280_temperature;BME280_humidity;BME280_pressure;Samples;Min_cycle;Max_cycle;Signal;HPM_P1;HPM_P2
2024/02/05 00:00:49;;;;;;;365.55;343.98;;;10.10;99.90;;;;;;12576294;28;20071;-82
2024/02/05 00:06:51;;;;;;;372.48;350.13;;;10.10;99.90;;;;;;12597852;28;20059;-82
2024/02/05 00:12:53;;;;;;;466.40;438.13;;;10.00;99.90;;;;;;12600704;28;20492;-86
2024/02/05 00:18:56;;;;;;;542.30;509.58;;;10.00;99.90;;;;;;12587707;28;20063;-82
2024/02/05 00:24:58;;;;;;;529.33;497.63;;;10.00;99.90;;;;;;12592933;28;20122;-85
2024/02/05 00:31:00;;;;;;;521.30;490.17;;;10.00;99.90;;;;;;12585013;28;20052;-81
2024/02/05 00:37:02;;;;;;;524.10;493.10;;;10.00;99.90;;;;;;12603954;28;20044;-82
2024/02/05 00:43:04;;;;;;;534.03;501.92;;;9.90;99.90;;;;;;12612641;28;20477;-83
2024/02/05 00:49:06;;;;;;;521.05;490.17;;;10.00;99.90;;;;;;12608309;28;20068;-81
2024/02/05 00:55:08;;;;;;;524.13;492.73;;;10.00;99.90;;;;;;12607755;28;20091;-83
2024/02/05 01:01:10;;;;;;;524.45;492.52;;;9.90;99.90;;;;;;12624335;28;20056;-82
2024/02/05 01:07:13;;;;;;;529.10;497.48;;;9.90;99.90;;;;;;12612083;28;20140;-84
2024/02/05 01:13:14;;;;;;;523.28;492.52;;;9.90;99.90;;;;;;12608262;28;20493;-81
2024/02/05 01:19:16;;;;;;;526.63;495.08;;;9.90;99.90;;;;;;12608783;28;21202;-83
2024/02/05 01:25:18;;;;;;;525.90;494.63;;;9.90;99.90;;;;;;12621419;28;20344;-83
2024/02/05 01:31:20;;;;;;;530.35;498.27;;;10.00;99.90;;;;;;12628072;28;20049;-84
2024/02/05 01:37:22;;;;;;;532.85;500.67;;;9.90;99.90;;;;;;12589346;28;20416;-86
2024/02/05 01:43:25;;;;;;;530.10;498.35;;;9.90;99.90;;;;;;12610540;28;20053;-85
2024/02/05 01:49:26;;;;;;;522.80;491.65;;;9.90;99.90;;;;;;12626806;28;20059;-86
2024/02/05 01:55:29;;;;;;;521.78;490.55;;;9.90;99.90;;;;;;12636439;28;20411;-85
2024/02/05 02:01:34;;;;;;;509.40;478.95;;;9.90;99.90;;;;;;12623712;28;20051;-86
2024/02/05 02:07:37;;;;;;;497.50;467.63;;;9.90;99.90;;;;;;12624097;28;20055;-86
2024/02/05 02:13:39;;;;;;;495.63;465.50;;;9.80;99.90;;;;;;12633976;28;20052;-85
2024/02/05 02:19:46;;;;;;;402.77;378.95;;;9.80;99.90;;;;;;12631100;28;20053;-87
2024/02/05 02:25:50;;;;;;;481.75;452.40;;;9.80;99.90;;;;;;12627001;28;20122;-86
2024/02/05 02:32:01;;;;;;;485.50;456.65;;;9.80;99.90;;;;;;12646321;28;20075;-85
2024/02/05 02:38:15;;;;;;;485.77;456.65;;;9.80;99.90;;;;;;12627339;28;20584;-86
2024/02/05 02:44:19;;;;;;;476.10;447.47;;;9.80;99.90;;;;;;12635335;28;20083;-82
2024/02/05 02:50:21;;;;;;;455.87;428.30;;;9.80;99.90;;;;;;12630786;28;20066;-85
2024/02/05 02:56:23;;;;;;;437.85;411.42;;;9.80;99.90;;;;;;12629599;28;20052;-83
2024/02/05 03:02:25;;;;;;;335.50;315.27;;;9.70;99.90;;;;;;12631655;28;20044;-86
2024/02/05 03:08:27;;;;;;;294.42;276.13;;;9.80;99.90;;;;;;12627240;28;20060;-82
2024/02/05 03:14:29;;;;;;;274.92;258.25;;;9.80;99.90;;;;;;12619585;28;20072;-84
2024/02/05 03:20:41;;;;;;;233.43;219.30;;;9.80;99.90;;;;;;12649088;28;20103;-85
2024/02/05 03:26:43;;;;;;;208.18;194.93;;;9.80;99.90;;;;;;12643573;28;20062;-83
2024/02/05 03:32:45;;;;;;;179.18;167.25;;;9.90;99.90;;;;;;12650659;28;20044;-85
2024/02/05 03:38:47;;;;;;;164.00;152.85;;;9.90;99.90;;;;;;12622838;28;20044;-87
2024/02/05 03:44:49;;;;;;;150.55;140.63;;;9.90;99.90;;;;;;12635987;28;20114;-83
2024/02/05 03:50:51;;;;;;;137.50;128.25;;;10.00;99.90;;;;;;12650408;28;20049;-85
2024/02/05 03:56:53;;;;;;;145.13;135.60;;;10.00;99.90;;;;;;12641895;28;20052;-81
2024/02/05 04:02:56;;;;;;;135.05;126.35;;;10.00;99.90;;;;;;12624183;28;20131;-80
2024/02/05 04:08:58;;;;;;;136.50;126.97;;;10.10;99.90;;;;;;12651230;28;20488;-81
2024/02/05 04:15:00;;;;;;;129.85;121.70;;;10.10;99.90;;;;;;12632464;28;20345;-83
2024/02/05 04:21:03;;;;;;;137.98;129.35;;;10.00;99.90;;;;;;12631264;28;20052;-82
2024/02/05 04:27:08;;;;;;;129.60;121.18;;;10.00;99.90;;;;;;12670268;28;20044;-83
2024/02/05 04:33:10;;;;;;;116.70;109.32;;;10.00;99.90;;;;;;12658241;28;20476;-80
2024/02/05 04:39:12;;;;;;;105.65;98.57;;;10.00;99.90;;;;;;12636952;28;20049;-81
2024/02/05 04:45:14;;;;;;;93.03;86.35;;;10.00;99.90;;;;;;12643174;28;20134;-81
2024/02/05 04:51:16;;;;;;;98.68;92.30;;;10.00;99.90;;;;;;12661327;28;20133;-80
2024/02/05 04:57:18;;;;;;;98.10;91.45;;;10.00;99.90;;;;;;12680056;28;20068;-80
2024/02/05 05:03:20;;;;;;;95.30;89.20;;;10.00;99.90;;;;;;12629881;28;20048;-85
2024/02/05 05:09:22;;;;;;;90.70;83.82;;;9.90;99.90;;;;;;12619411;28;20558;-83
2024/02/05 05:15:24;;;;;;;86.85;80.57;;;9.80;99.90;;;;;;12602712;28;20072;-86
2024/02/05 05:21:26;;;;;;;90.78;84.47;;;9.90;99.90;;;;;;12631932;28;20273;-84
2024/02/05 05:27:29;;;;;;;88.40;82.60;;;9.90;99.90;;;;;;12629695;28;20083;-84
2024/02/05 05:33:31;;;;;;;81.75;75.78;;;9.90;99.90;;;;;;12613836;28;20427;-85
2024/02/05 05:39:33;;;;;;;93.07;86.38;;;9.90;99.90;;;;;;12620661;28;20075;-85
2024/02/05 05:45:35;;;;;;;88.47;82.25;;;9.90;99.90;;;;;;12600994;28;20049;-85
2024/02/05 05:51:37;;;;;;;86.85;80.43;;;9.90;99.90;;;;;;12632061;28;20075;-86
2024/02/05 05:57:39;;;;;;;86.68;80.30;;;9.80;99.90;;;;;;12614306;28;20080;-84
2024/02/05 06:03:43;;;;;;;80.50;74.60;;;9.80;99.90;;;;;;12622846;28;20044;-84
2024/02/05 06:09:45;;;;;;;83.37;77.03;;;9.70;99.90;;;;;;12643178;28;20056;-85
2024/02/05 06:15:47;;;;;;;85.30;78.68;;;9.70;99.90;;;;;;12603438;28;20059;-83
2024/02/05 06:21:49;;;;;;;79.18;73.43;;;9.70;99.90;;;;;;12588909;28;20456;-83
2024/02/05 06:27:51;;;;;;;78.00;72.22;;;9.60;99.90;;;;;;12612955;28;20048;-83
2024/02/05 06:33:53;;;;;;;74.13;68.38;;;9.60;99.90;;;;;;12612411;28;20056;-81
2024/02/05 06:39:56;;;;;;;75.15;69.72;;;9.60;99.90;;;;;;12588055;28;20082;-81
2024/02/05 06:45:58;;;;;;;74.65;69.35;;;9.60;99.90;;;;;;12621599;28;20048;-81
2024/02/05 06:52:00;;;;;;;75.85;70.00;;;9.50;99.90;;;;;;12610266;28;20053;-82
2024/02/05 06:58:03;;;;;;;84.60;78.03;;;9.60;99.90;;;;;;12617818;28;20131;-85
2024/02/05 07:04:05;;;;;;;74.13;68.53;;;9.50;99.90;;;;;;12622154;28;20182;-81
2024/02/05 07:10:08;;;;;;;71.97;66.70;;;9.60;99.90;;;;;;12611194;28;20064;-83
2024/02/05 07:16:17;;;;;;;65.88;61.22;;;9.50;99.90;;;;;;12594023;28;20064;-81
2024/02/05 07:22:20;;;;;;;71.00;65.85;;;9.50;99.90;;;;;;12614184;28;20067;-85
2024/02/05 07:28:22;;;;;;;70.45;64.82;;;9.50;99.90;;;;;;12630753;28;20071;-85
2024/02/05 07:34:24;;;;;;;72.03;66.57;;;9.50;99.90;;;;;;12628873;28;20106;-86
2024/02/05 07:40:26;;;;;;;74.35;69.03;;;9.50;99.90;;;;;;12616106;28;20081;-86
2024/02/05 07:46:28;;;;;;;74.38;68.88;;;9.50;99.90;;;;;;12599846;28;20060;-84
2024/02/05 07:52:30;;;;;;;76.65;71.28;;;9.60;99.90;;;;;;12597107;28;20056;-85
2024/02/05 07:58:32;;;;;;;71.38;65.15;;;9.50;99.90;;;;;;12525510;28;20123;-86
2024/02/05 08:04:34;;;;;;;74.30;69.00;;;9.50;99.90;;;;;;12534313;28;20040;-84
2024/02/05 08:10:36;;;;;;;71.65;66.13;;;9.50;99.90;;;;;;12516014;28;20489;-85
2024/02/05 08:16:39;;;;;;;71.93;66.35;;;9.50;99.90;;;;;;12514246;28;20132;-86
2024/02/05 08:22:41;;;;;;;66.70;61.17;;;9.50;99.90;;;;;;12529976;28;20049;-86
2024/02/05 08:28:43;;;;;;;72.95;67.35;;;9.50;99.90;;;;;;12536445;28;20052;-87
2024/02/05 08:34:45;;;;;;;69.32;64.13;;;9.50;99.90;;;;;;12511154;28;20061;-85
2024/02/05 08:40:47;;;;;;;67.93;62.92;;;9.60;99.90;;;;;;12516713;28;20053;-86
2024/02/05 08:46:49;;;;;;;71.45;66.00;;;9.60;99.90;;;;;;12537922;28;20133;-85
2024/02/05 08:52:51;;;;;;;68.40;63.00;;;9.50;99.90;;;;;;12528296;28;20059;-82
2024/02/05 08:58:53;;;;;;;70.40;65.22;;;9.50;99.90;;;;;;12614186;28;20048;-85
2024/02/05 09:04:55;;;;;;;72.90;66.90;;;9.60;99.90;;;;;;12629990;28;20492;-85
2024/02/05 09:10:57;;;;;;;70.45;65.03;;;9.50;99.90;;;;;;12631463;28;20053;-83
2024/02/05 09:16:59;;;;;;;71.22;66.43;;;9.50;99.90;;;;;;12617407;28;20053;-81
2024/02/05 09:23:01;;;;;;;72.35;67.47;;;9.60;99.90;;;;;;12614589;28;20052;-85
2024/02/05 09:29:02;;;;;;;73.47;68.18;;;9.60;99.90;;;;;;12639577;28;20480;-85
2024/02/05 09:35:05;;;;;;;69.53;64.80;;;9.50;99.90;;;;;;12651911;28;20072;-85
2024/02/05 09:41:11;;;;;;;73.57;68.30;;;9.60;99.90;;;;;;12607484;28;20048;-86
2024/02/05 09:47:17;;;;;;;76.13;70.10;;;9.50;99.90;;;;;;12624173;28;20099;-85
2024/02/05 09:53:20;;;;;;;74.40;69.03;;;9.50;99.90;;;;;;12625840;28;20056;-88
2024/02/05 09:59:22;;;;;;;74.68;69.63;;;9.60;99.90;;;;;;12637867;28;20052;-86
2024/02/05 10:05:25;;;;;;;70.82;65.97;;;9.60;99.90;;;;;;12633397;28;20052;-84
2024/02/05 10:11:29;;;;;;;73.13;67.73;;;9.60;99.90;;;;;;12616194;28;20087;-86
2024/02/05 10:17:31;;;;;;;80.77;74.80;;;9.50;99.90;;;;;;12611652;28;20045;-86
2024/02/05 10:23:33;;;;;;;75.63;70.18;;;9.60;99.90;;;;;;12615095;28;20076;-85
2024/02/05 10:29:35;;;;;;;80.53;74.63;;;9.70;99.90;;;;;;12623427;28;20044;-85
2024/02/05 10:35:36;;;;;;;77.80;72.35;;;9.70;99.90;;;;;;12630876;28;20049;-85
2024/02/05 10:41:38;;;;;;;79.22;73.25;;;9.70;99.90;;;;;;12625862;28;20066;-85
2024/02/05 10:47:42;;;;;;;77.15;71.57;;;9.90;99.90;;;;;;12635407;28;20064;-86
2024/02/05 10:53:44;;;;;;;81.88;75.57;;;9.90;99.90;;;;;;12582884;28;20404;-85
2024/02/05 10:59:46;;;;;;;82.20;76.18;;;10.00;99.90;;;;;;12622145;28;20055;-85
2024/02/05 11:05:53;;;;;;;87.07;81.07;;;9.90;99.90;;;;;;12605936;28;20080;-83
2024/02/05 11:11:58;;;;;;;83.80;78.10;;;9.90;99.90;;;;;;12607296;28;20063;-85
2024/02/05 11:18:06;;;;;;;95.82;88.97;;;10.00;99.90;;;;;;12597734;28;20060;-83
2024/02/05 11:24:10;;;;;;;86.97;81.30;;;10.00;99.90;;;;;;12616473;28;20052;-84
2024/02/05 11:30:15;;;;;;;;;;;10.00;99.90;;;;;;12618108;28;20105;-84
2024/02/05 11:36:20;;;;;;;84.72;78.47;;;10.00;99.90;;;;;;12605729;28;19931;-81
2024/02/05 11:42:22;;;;;;;85.47;79.20;;;10.00;99.90;;;;;;12595286;28;20056;-85
2024/02/05 11:48:24;;;;;;;91.88;85.18;;;10.10;99.90;;;;;;12611696;28;20496;-87
2024/02/05 11:54:31;;;;;;;92.38;86.15;;;10.20;99.90;;;;;;12611610;28;20177;-84
2024/02/05 12:00:33;;;;;;;90.07;83.95;;;10.10;99.90;;;;;;12602027;28;20055;-83
2024/02/05 12:06:35;;;;;;;93.68;87.25;;;10.20;99.90;;;;;;12624868;28;20082;-83
2024/02/05 12:12:38;;;;;;;87.13;81.30;;;10.20;99.90;;;;;;12644370;28;20071;-84
2024/02/05 12:18:40;;;;;;;86.75;80.78;;;10.20;99.90;;;;;;12637478;28;20114;-85
2024/02/05 12:24:48;;;;;;;90.50;84.15;;;10.20;99.90;;;;;;12620659;28;20063;-85
2024/02/05 12:30:58;;;;;;;86.25;79.88;;;10.10;99.90;;;;;;12636470;28;20498;-83
2024/02/05 12:37:00;;;;;;;90.63;84.13;;;10.20;99.90;;;;;;12621521;28;20155;-84
2024/02/05 12:43:02;;;;;;;104.15;96.00;;;10.10;99.90;;;;;;12629958;28;20052;-84
2024/02/05 12:49:05;;;;;;;93.55;87.10;;;10.10;99.90;;;;;;12632757;28;20052;-84
2024/02/05 12:55:07;;;;;;;87.50;81.20;;;10.20;99.90;;;;;;12641668;28;20489;-83
2024/02/05 13:01:09;;;;;;;99.65;91.68;;;10.10;99.90;;;;;;12631571;28;20061;-86
2024/02/05 13:07:17;;;;;;;84.95;79.18;;;10.10;99.90;;;;;;12629422;28;20128;-84
2024/02/05 13:13:21;;;;;;;86.32;80.55;;;10.10;99.90;;;;;;12615104;28;20051;-83
2024/02/05 13:19:27;;;;;;;86.93;81.00;;;10.10;99.90;;;;;;12587797;28;20056;-82
2024/02/05 13:25:30;;;;;;;85.40;79.53;;;10.20;99.90;;;;;;12616079;28;20056;-83
2024/02/05 13:31:36;;;;;;;86.88;80.97;;;10.30;99.90;;;;;;12620078;28;20058;-84
2024/02/05 13:37:38;;;;;;;87.75;81.85;;;10.20;99.90;;;;;;12602885;28;20088;-82
2024/02/05 13:43:41;;;;;;;87.40;81.35;;;10.20;99.90;;;;;;12609068;28;20056;-85
2024/02/05 13:49:43;;;;;;;85.45;79.95;;;10.20;99.90;;;;;;12616807;28;20059;-85
2024/02/05 13:55:45;;;;;;;87.15;80.97;;;10.20;99.90;;;;;;12623351;28;20108;-83
2024/02/05 14:01:51;;;;;;;92.45;86.45;;;10.10;99.90;;;;;;12611563;28;20048;-81
2024/02/05 14:07:53;;;;;;;86.65;80.70;;;10.20;99.90;;;;;;12616557;28;20086;-82
2024/02/05 14:13:55;;;;;;;87.60;81.40;;;10.20;99.90;;;;;;12606903;28;20091;-83
2024/02/05 14:19:57;;;;;;;85.40;79.30;;;10.10;99.90;;;;;;12604265;28;20497;-85
2024/02/05 14:26:02;;;;;;;88.00;82.20;;;10.20;99.90;;;;;;12633705;28;20084;-84
2024/02/05 14:32:04;;;;;;;90.82;84.45;;;10.10;99.90;;;;;;12633409;28;20044;-85
2024/02/05 14:38:06;;;;;;;86.88;80.93;;;10.10;99.90;;;;;;12594110;28;20055;-83
2024/02/05 14:44:09;;;;;;;102.47;95.78;;;10.10;99.90;;;;;;12609670;28;20428;-85
2024/02/05 14:50:11;;;;;;;92.80;86.22;;;10.10;99.90;;;;;;12608194;28;20142;-87
2024/02/05 14:56:14;;;;;;;88.45;82.78;;;10.10;99.90;;;;;;12602980;28;20055;-86
2024/02/05 15:02:16;;;;;;;91.15;84.85;;;10.10;99.90;;;;;;12608099;28;20048;-86
2024/02/05 15:08:18;;;;;;;89.80;83.50;;;10.10;99.90;;;;;;12616365;28;20484;-87
2024/02/05 15:14:20;;;;;;;87.90;81.85;;;10.10;99.90;;;;;;12592700;28;20057;-85
2024/02/05 15:20:24;;;;;;;92.60;85.78;;;10.10;99.90;;;;;;12599546;28;20140;-87
2024/02/05 15:26:26;;;;;;;92.30;85.43;;;10.10;99.90;;;;;;12602531;28;20044;-86
2024/02/05 15:32:28;;;;;;;94.95;88.45;;;10.10;99.90;;;;;;12624997;28;20061;-81
2024/02/05 15:38:34;;;;;;;89.20;83.15;;;10.10;99.90;;;;;;12642439;28;20059;-81
2024/02/05 15:44:36;;;;;;;91.63;85.38;;;10.10;99.90;;;;;;12641745;28;20052;-82
2024/02/05 15:50:38;;;;;;;92.05;85.80;;;10.10;99.90;;;;;;12641498;28;20048;-80
2024/02/05 15:56:42;;;;;;;89.50;83.82;;;10.10;99.90;;;;;;12626978;28;20064;-80
2024/02/05 16:02:44;;;;;;;99.20;92.28;;;10.00;99.90;;;;;;12623548;28;20052;-82
2024/02/05 16:08:46;;;;;;;88.22;82.43;;;10.00;99.90;;;;;;12614727;28;20056;-81
2024/02/05 16:14:48;;;;;;;84.18;78.60;;;10.00;99.90;;;;;;12614906;28;20063;-83
2024/02/05 16:20:50;;;;;;;86.03;79.82;;;10.00;99.90;;;;;;12619741;28;20048;-80
2024/02/05 16:26:52;;;;;;;91.82;85.60;;;10.00;99.90;;;;;;12640645;28;20048;-80
2024/02/05 16:32:54;;;;;;;97.95;91.28;;;9.90;99.90;;;;;;12629993;28;20437;-80
2024/02/05 16:38:57;;;;;;;92.78;86.47;;;9.90;99.90;;;;;;12632073;28;20099;-80
2024/02/05 16:45:00;;;;;;;89.22;83.40;;;9.90;99.90;;;;;;12634944;28;20048;-80
2024/02/05 16:51:02;;;;;;;83.57;77.70;;;9.90;99.90;;;;;;12613366;28;20083;-79
2024/02/05 16:57:04;;;;;;;87.60;81.88;;;9.90;99.90;;;;;;12620908;28;20068;-81
2024/02/05 17:03:05;;;;;;;99.07;92.78;;;9.80;99.90;;;;;;12622822;28;20086;-82
2024/02/05 17:09:08;;;;;;;98.90;92.45;;;9.80;99.90;;;;;;12637009;28;20064;-80
2024/02/05 17:15:11;;;;;;;92.60;86.90;;;9.70;99.90;;;;;;12613933;28;20052;-82
2024/02/05 17:21:16;;;;;;;97.95;91.88;;;9.80;99.90;;;;;;12624427;28;20049;-80
2024/02/05 17:27:18;;;;;;;88.05;82.75;;;9.80;99.90;;;;;;12624627;28;20093;-84
2024/02/05 17:33:20;;;;;;;93.50;87.45;;;9.90;99.90;;;;;;12605926;28;20392;-79
2024/02/05 17:39:22;;;;;;;100.60;94.28;;;9.80;99.90;;;;;;12623448;28;20110;-79
2024/02/05 17:45:24;;;;;;;90.25;84.18;;;9.60;99.90;;;;;;12616145;28;20484;-82
2024/02/05 17:51:26;;;;;;;88.05;82.13;;;9.60;99.90;;;;;;12637924;28;20055;-80
2024/02/05 17:57:28;;;;;;;92.57;86.88;;;9.70;99.90;;;;;;12640462;28;20139;-83
2024/02/05 18:03:30;;;;;;;92.28;86.20;;;9.50;99.90;;;;;;12616434;28;20055;-85
2024/02/05 18:09:32;;;;;;;100.57;94.43;;;9.50;99.90;;;;;;12614525;28;20056;-83
2024/02/05 18:15:34;;;;;;;99.70;93.70;;;9.50;99.90;;;;;;12623945;28;20060;-85
2024/02/05 18:21:36;;;;;;;105.65;98.85;;;9.50;99.90;;;;;;12618936;28;20051;-85
2024/02/05 18:27:38;;;;;;;98.50;92.30;;;9.40;99.90;;;;;;12653840;28;20056;-84
2024/02/05 18:33:40;;;;;;;91.85;85.90;;;9.40;99.90;;;;;;12599295;28;20412;-84
2024/02/05 18:39:41;;;;;;;88.78;83.00;;;9.40;99.90;;;;;;12626457;28;20056;-86
2024/02/05 18:45:44;;;;;;;91.38;85.65;;;9.40;99.90;;;;;;12608953;28;20048;-84
2024/02/05 18:51:46;;;;;;;94.22;88.38;;;9.40;99.90;;;;;;12610962;28;20057;-84
2024/02/05 18:57:48;;;;;;;88.13;82.22;;;9.40;99.90;;;;;;12629029;28;20078;-83
2024/02/05 19:03:50;;;;;;;84.30;79.50;;;9.40;99.90;;;;;;12612879;28;20059;-83
2024/02/05 19:09:52;;;;;;;92.55;87.05;;;9.30;99.90;;;;;;12626618;28;20044;-85
2024/02/05 19:15:54;;;;;;;89.47;83.82;;;9.30;99.90;;;;;;12614907;28;20704;-85
2024/02/05 19:21:56;;;;;;;85.32;79.22;;;9.30;99.90;;;;;;12630493;28;20051;-82
2024/02/05 19:27:58;;;;;;;99.68;93.30;;;9.40;99.90;;;;;;12629965;28;20058;-84
2024/02/05 19:34:00;;;;;;;86.25;80.50;;;9.20;99.90;;;;;;12611382;28;20057;-85
2024/02/05 19:40:03;;;;;;;97.43;90.60;;;9.20;99.90;;;;;;12635893;28;20044;-83
2024/02/05 19:46:05;;;;;;;90.55;84.65;;;9.20;99.90;;;;;;12629809;28;20059;-85
2024/02/05 19:52:08;;;;;;;97.75;90.97;;;9.20;99.90;;;;;;12630901;28;20138;-84
2024/02/05 19:58:11;;;;;;;94.27;87.90;;;9.10;99.90;;;;;;12622355;28;20082;-83
2024/02/05 20:04:13;;;;;;;88.55;83.22;;;9.00;99.90;;;;;;12627964;28;20052;-83
2024/02/05 20:10:15;;;;;;;88.38;83.18;;;9.00;99.90;;;;;;12624178;28;20053;-84
2024/02/05 20:16:31;;;;;;;86.63;81.25;;;9.00;99.90;;;;;;12606929;28;20056;-83
2024/02/05 20:22:33;;;;;;;101.60;95.70;;;8.90;99.90;;;;;;12628414;28;20048;-84
2024/02/05 20:28:35;;;;;;;93.72;88.32;;;8.80;99.90;;;;;;12616531;28;20177;-84
2024/02/05 20:34:37;;;;;;;96.78;90.72;;;8.80;99.90;;;;;;12622241;28;20131;-83
2024/02/05 20:40:39;;;;;;;94.20;88.22;;;8.70;99.90;;;;;;12614479;28;20174;-84
2024/02/05 20:46:42;;;;;;;94.15;88.75;;;8.70;99.90;;;;;;12626030;28;20144;-83
2024/02/05 20:52:44;;;;;;;93.38;87.55;;;8.60;99.90;;;;;;12631116;28;20083;-84
2024/02/05 20:58:46;;;;;;;91.63;85.88;;;8.50;99.90;;;;;;12627719;28;20048;-85
2024/02/05 21:04:48;;;;;;;89.88;84.03;;;8.40;99.90;;;;;;12606016;28;20040;-84
2024/02/05 21:10:51;;;;;;;93.32;87.50;;;8.40;99.90;;;;;;12615783;28;20070;-82
2024/02/05 21:16:54;;;;;;;90.90;85.18;;;8.30;99.90;;;;;;12620697;28;20284;-84
2024/02/05 21:22:56;;;;;;;95.07;89.18;;;8.30;99.90;;;;;;12605894;28;20622;-84
2024/02/05 21:29:01;;;;;;;97.53;91.28;;;8.20;99.90;;;;;;12605153;28;20523;-83
2024/02/05 21:35:07;;;;;;;93.03;87.32;;;8.20;99.90;;;;;;12596258;28;20060;-86
2024/02/05 21:41:09;;;;;;;94.82;88.68;;;8.20;99.90;;;;;;12577242;28;20049;-84
2024/02/05 21:47:11;;;;;;;91.90;85.80;;;8.10;99.90;;;;;;12610533;28;20515;-83
2024/02/05 21:53:13;;;;;;;87.85;82.25;;;8.00;99.90;;;;;;12593906;28;20511;-86
2024/02/05 21:59:15;;;;;;;86.47;80.18;;;8.00;99.90;;;;;;12621642;28;20109;-85
2024/02/05 22:05:17;;;;;;;80.70;74.75;;;7.80;99.90;;;;;;12613527;28;20048;-85
2024/02/05 22:11:19;;;;;;;80.60;75.38;;;7.70;99.90;;;;;;12627218;28;20439;-85
2024/02/05 22:17:21;;;;;;;82.97;77.47;;;7.60;99.90;;;;;;12591048;28;20056;-87
2024/02/05 22:23:23;;;;;;;81.90;76.57;;;7.60;99.90;;;;;;12575413;28;20053;-85
2024/02/05 22:29:25;;;;;;;85.00;79.75;;;7.60;99.90;;;;;;12616147;28;20158;-84
2024/02/05 22:35:27;;;;;;;87.93;82.32;;;7.50;99.90;;;;;;12603836;28;20055;-80
2024/02/05 22:41:30;;;;;;;89.80;84.38;;;7.50;99.90;;;;;;12611254;28;20139;-80
2024/02/05 22:47:35;;;;;;;87.03;81.72;;;7.50;99.90;;;;;;12616714;28;20087;-80
2024/02/05 22:53:37;;;;;;;97.65;91.57;;;7.50;99.90;;;;;;12629678;28;20121;-80
2024/02/05 22:59:39;;;;;;;103.45;97.57;;;7.50;99.90;;;;;;12612880;28;20129;-81
2024/02/05 23:05:41;;;;;;;92.10;86.32;;;7.60;99.90;;;;;;12604608;28;20053;-80
2024/02/05 23:11:43;;;;;;;95.30;89.32;;;7.70;99.90;;;;;;12595371;28;20419;-79
2024/02/05 23:17:45;;;;;;;87.50;82.13;;;7.80;99.90;;;;;;12623768;28;20059;-79
2024/02/05 23:23:47;;;;;;;97.03;91.43;;;7.90;99.90;;;;;;12616091;28;20135;-79
2024/02/05 23:29:49;;;;;;;94.53;88.70;;;7.90;99.90;;;;;;12605443;28;20048;-80
2024/02/05 23:35:51;;;;;;;102.10;95.88;;;7.90;99.90;;;;;;12617124;28;20420;-79
2024/02/05 23:41:54;;;;;;;97.35;91.65;;;7.90;99.90;;;;;;12600473;28;20045;-82
2024/02/05 23:47:56;;;;;;;103.35;97.32;;;7.80;99.90;;;;;;12611814;28;20093;-81
2024/02/05 23:53:58;;;;;;;116.25;109.47;;;7.70;99.90;;;;;;12603721;28;20404;-78
